Time;durP1;ratioP1;P1;durP2;ratioP2;P2;SDS_P1;SDS_P2;PMS_P1;PMS_P2;Temp;Humidity;BMP_temperature;BMP_pressure;BME280_temperature;BME280_humidity;BME280_pressure;Samples;Min_cycle;Max_cycle;Signal;HPM_P1;HPM_P2
2022/02/21 00:00:21;;;;;;;4.80;2.40;;;;;;;;;;5006771;28;20216;-78
2022/02/21 00:02:50;;;;;;;3.83;1.40;;;;;;;;;;5008551;28;20236;-78
2022/02/21 00:05:18;;;;;;;4.30;1.33;;;;;;;;;;5009564;28;20329;-80
2022/02/21 00:07:46;;;;;;;8.33;1.97;;;;;;;;;;5007021;28;20200;-78
2022/02/21 00:10:14;;;;;;;7.60;1.70;;;;;;;;;;5007934;28;20233;-76
2022/02/21 00:12:42;;;;;;;4.60;1.70;;;;;;;;;;5008125;28;20197;-77
2022/02/21 00:15:15;;;;;;;2.50;1.37;;;;;;;;;;5007290;28;20208;-76
2022/02/21 00:17:43;;;;;;;1.97;0.87;;;;;;;;;;5006753;28;20288;-76
2022/02/21 00:20:10;;;;;;;3.47;1.70;;;;;;;;;;5009280;28;20654;-77
2022/02/21 00:22:38;;;;;;;12.93;3.17;;;;;;;;;;5008867;28;20201;-76
2022/02/21 00:25:05;;;;;;;2.60;0.77;;;;;;;;;;5008948;28;20277;-75
2022/02/21 00:27:33;;;;;;;12.87;1.23;;;;;;;;;;5007876;28;20193;-76
2022/02/21 00:30:00;;;;;;;3.53;0.93;;;;;;;;;;5007571;28;20238;-76
2022/02/21 00:32:29;;;;;;;10.73;2.33;;;;;;;;;;5008857;28;20196;-76
2022/02/21 00:34:57;;;;;;;3.97;1.53;;;;;;;;;;5007072;28;20205;-76
2022/02/21 00:37:24;;;;;;;6.70;1.80;;;;;;;;;;5007522;28;20215;-76
2022/02/21 00:39:52;;;;;;;4.33;1.37;;;;;;;;;;5008993;28;20205;-77
2022/02/21 00:42:21;;;;;;;3.23;1.60;;;;;;;;;;5007741;28;20275;-77
2022/02/21 00:44:51;;;;;;;2.43;1.13;;;;;;;;;;5008172;28;20197;-76
2022/02/21 00:47:19;;;;;;;5.30;0.87;;;;;;;;;;5005543;28;20193;-75
2022/02/21 00:49:47;;;;;;;8.63;2.40;;;;;;;;;;5006200;28;20233;-76
2022/02/21 00:52:15;;;;;;;2.63;0.60;;;;;;;;;;5010683;28;20201;-76
2022/02/21 00:54:42;;;;;;;6.53;1.50;;;;;;;;;;5014100;28;20568;-76
2022/02/21 00:57:10;;;;;;;2.60;1.20;;;;;;;;;;5009812;28;20200;-76
2022/02/21 00:59:37;;;;;;;1.83;0.80;;;;;;;;;;5008273;28;20209;-76
2022/02/21 01:02:05;;;;;;;6.33;1.53;;;;;;;;;;4996212;28;21077;-75
2022/02/21 01:04:32;;;;;;;6.87;1.77;;;;;;;;;;4997490;28;20672;-76
2022/02/21 01:07:01;;;;;;;2.20;0.80;;;;;;;;;;4997266;28;20296;-75
2022/02/21 01:09:29;;;;;;;7.00;1.43;;;;;;;;;;5000634;28;20608;-75
2022/02/21 01:11:56;;;;;;;9.03;1.50;;;;;;;;;;4994228;28;20240;-74
2022/02/21 01:14:23;;;;;;;4.27;1.97;;;;;;;;;;4999724;28;20212;-75
2022/02/21 01:16:51;;;;;;;3.53;1.50;;;;;;;;;;5007161;28;20201;-75
2022/02/21 01:19:18;;;;;;;1.47;0.80;;;;;;;;;;5012617;28;20197;-76
2022/02/21 01:21:46;;;;;;;7.30;1.40;;;;;;;;;;5012419;28;20669;-76
2022/02/21 01:24:15;;;;;;;2.57;1.37;;;;;;;;;;5009751;28;20216;-76
2022/02/21 01:26:42;;;;;;;5.80;1.67;;;;;;;;;;5011124;28;20201;-77
2022/02/21 01:29:10;;;;;;;1.33;0.93;;;;;;;;;;5008839;28;20198;-75
2022/02/21 01:31:37;;;;;;;1.70;1.30;;;;;;;;;;5013092;28;20324;-75
2022/02/21 01:34:04;;;;;;;5.60;0.70;;;;;;;;;;5011667;28;20205;-78
2022/02/21 01:36:32;;;;;;;4.93;1.17;;;;;;;;;;5011688;28;20197;-76
2022/02/21 01:38:59;;;;;;;5.13;1.33;;;;;;;;;;5010180;28;20204;-75
2022/02/21 01:41:28;;;;;;;8.13;1.17;;;;;;;;;;5011563;28;20201;-75
2022/02/21 01:44:03;;;;;;;3.37;1.30;;;;;;;;;;5009708;28;20208;-75
2022/02/21 01:46:30;;;;;;;2.57;1.23;;;;;;;;;;5012508;28;20197;-76
2022/02/21 01:48:58;;;;;;;6.60;1.90;;;;;;;;;;5009657;28;20197;-75
2022/02/21 01:51:25;;;;;;;3.87;1.37;;;;;;;;;;5013958;28;20727;-76
2022/02/21 01:53:54;;;;;;;6.80;2.53;;;;;;;;;;5011483;28;20208;-79
2022/02/21 01:56:22;;;;;;;3.30;1.27;;;;;;;;;;5010360;28;20196;-76
2022/02/21 01:58:51;;;;;;;2.17;1.40;;;;;;;;;;5010142;28;20207;-75
2022/02/21 02:01:18;;;;;;;4.47;1.80;;;;;;;;;;5009024;28;20232;-75
2022/02/21 02:03:46;;;;;;;5.63;1.60;;;;;;;;;;5006874;28;20201;-75
2022/02/21 02:06:14;;;;;;;4.10;1.73;;;;;;;;;;5010260;28;20728;-76
2022/02/21 02:08:41;;;;;;;7.17;1.83;;;;;;;;;;5011242;28;20206;-76
2022/02/21 02:11:08;;;;;;;3.93;1.10;;;;;;;;;;5008970;28;20834;-76
2022/02/21 02:13:36;;;;;;;3.63;1.57;;;;;;;;;;5010749;28;20224;-76
2022/02/21 02:16:05;;;;;;;5.47;1.20;;;;;;;;;;5012753;28;20201;-75
2022/02/21 02:18:32;;;;;;;10.20;1.80;;;;;;;;;;5010187;28;20200;-76
2022/02/21 02:21:00;;;;;;;4.73;1.70;;;;;;;;;;5011039;28;20622;-75
2022/02/21 02:23:29;;;;;;;6.73;1.40;;;;;;;;;;5011195;28;20717;-76
2022/02/21 02:25:57;;;;;;;7.97;2.40;;;;;;;;;;5008931;28;20205;-78
2022/02/21 02:28:26;;;;;;;2.50;1.90;;;;;;;;;;5010895;28;20232;-75
2022/02/21 02:30:53;;;;;;;10.23;2.10;;;;;;;;;;5011682;28;20220;-76
2022/02/21 02:33:21;;;;;;;9.73;2.03;;;;;;;;;;5010673;28;20208;-76
2022/02/21 02:35:48;;;;;;;9.20;1.73;;;;;;;;;;5011680;28;20279;-75
2022/02/21 02:38:15;;;;;;;4.27;1.33;;;;;;;;;;5009311;28;20240;-76
2022/02/21 02:40:44;;;;;;;6.53;1.03;;;;;;;;;;5007529;28;20208;-75
2022/02/21 02:43:12;;;;;;;5.27;1.03;;;;;;;;;;5009552;28;20696;-75
2022/02/21 02:45:45;;;;;;;3.07;0.80;;;;;;;;;;5010209;28;20193;-74
2022/02/21 02:48:12;;;;;;;5.43;1.77;;;;;;;;;;5004390;28;20287;-74
2022/02/21 02:50:40;;;;;;;5.17;1.67;;;;;;;;;;5010738;28;20271;-76
2022/02/21 02:53:07;;;;;;;3.57;1.57;;;;;;;;;;5012011;28;20220;-75
2022/02/21 02:55:35;;;;;;;3.90;1.73;;;;;;;;;;5011801;28;20197;-74
2022/02/21 02:58:03;;;;;;;3.77;0.93;;;;;;;;;;5007553;28;20685;-75
2022/02/21 03:00:31;;;;;;;7.07;1.87;;;;;;;;;;5009570;28;20197;-75
2022/02/21 03:02:58;;;;;;;11.73;1.17;;;;;;;;;;5011971;28;20197;-75
2022/02/21 03:05:26;;;;;;;4.70;2.07;;;;;;;;;;5010099;28;20665;-76
2022/02/21 03:07:53;;;;;;;4.47;1.70;;;;;;;;;;5000919;28;20725;-76
2022/02/21 03:10:20;;;;;;;6.03;1.63;;;;;;;;;;5000110;28;20229;-76
2022/02/21 03:12:48;;;;;;;8.70;1.97;;;;;;;;;;5003551;28;20201;-75
2022/02/21 03:15:17;;;;;;;8.53;1.30;;;;;;;;;;5003022;28;20192;-76
2022/02/21 03:17:44;;;;;;;5.03;1.57;;;;;;;;;;5003423;28;20197;-77
2022/02/21 03:20:12;;;;;;;2.30;1.07;;;;;;;;;;5002335;28;20209;-76
2022/02/21 03:22:39;;;;;;;5.27;2.30;;;;;;;;;;5002043;28;20201;-76
2022/02/21 03:25:07;;;;;;;8.47;2.20;;;;;;;;;;5004645;28;20610;-75
2022/02/21 03:27:41;;;;;;;3.73;1.67;;;;;;;;;;5002612;28;20201;-76
2022/02/21 03:30:09;;;;;;;6.53;1.47;;;;;;;;;;5001316;28;20855;-76
2022/02/21 03:32:37;;;;;;;5.97;2.10;;;;;;;;;;5003041;28;20227;-77
2022/02/21 03:35:05;;;;;;;4.03;1.70;;;;;;;;;;5009527;28;20197;-75
2022/02/21 03:37:35;;;;;;;1.47;1.03;;;;;;;;;;5009009;28;20197;-75
2022/02/21 03:40:03;;;;;;;3.70;1.77;;;;;;;;;;5009187;28;20193;-74
2022/02/21 03:42:31;;;;;;;5.03;1.33;;;;;;;;;;5011157;28;20205;-76
2022/02/21 03:44:59;;;;;;;3.83;1.90;;;;;;;;;;5006996;28;20200;-76
2022/02/21 03:47:27;;;;;;;6.23;1.53;;;;;;;;;;5012314;28;20201;-76
2022/02/21 03:49:56;;;;;;;14.57;1.10;;;;;;;;;;5008321;28;20879;-76
2022/02/21 03:52:23;;;;;;;2.53;1.10;;;;;;;;;;5011963;28;20698;-75
2022/02/21 03:54:50;;;;;;;3.50;1.17;;;;;;;;;;5007859;28;20195;-75
2022/02/21 03:57:18;;;;;;;8.90;1.40;;;;;;;;;;5009801;28;20197;-75
2022/02/21 03:59:45;;;;;;;1.03;0.93;;;;;;;;;;5006945;28;20698;-76
2022/02/21 04:02:13;;;;;;;1.50;0.90;;;;;;;;;;5010813;28;20231;-76
2022/02/21 04:04:40;;;;;;;5.60;1.23;;;;;;;;;;5009646;28;20204;-76
2022/02/21 04:07:09;;;;;;;6.53;2.00;;;;;;;;;;5009559;28;20600;-76
2022/02/21 04:09:37;;;;;;;2.07;0.83;;;;;;;;;;5008308;28;20224;-77
2022/02/21 04:12:04;;;;;;;3.50;0.87;;;;;;;;;;5009039;28;20239;-76
2022/02/21 04:14:32;;;;;;;1.97;1.07;;;;;;;;;;5008502;28;20193;-76
2022/02/21 04:16:59;;;;;;;4.00;1.03;;;;;;;;;;5009747;28;20224;-76
2022/02/21 04:19:27;;;;;;;2.60;1.13;;;;;;;;;;5010655;28;20204;-77
2022/02/21 04:21:56;;;;;;;5.90;0.97;;;;;;;;;;5003199;28;20564;-76
2022/02/21 04:24:25;;;;;;;3.47;1.23;;;;;;;;;;4990864;28;20205;-76
2022/02/21 04:26:52;;;;;;;4.63;1.23;;;;;;;;;;5006530;28;20197;-76
2022/02/21 04:29:20;;;;;;;9.47;1.67;;;;;;;;;;5000275;28;20212;-75
2022/02/21 04:31:47;;;;;;;6.40;1.80;;;;;;;;;;4992224;28;20232;-75
2022/02/21 04:34:14;;;;;;;8.83;2.33;;;;;;;;;;4995221;28;20678;-75
2022/02/21 04:36:42;;;;;;;5.17;1.37;;;;;;;;;;4992843;28;20201;-76
2022/02/21 04:39:09;;;;;;;5.50;1.30;;;;;;;;;;5004198;28;20211;-76
2022/02/21 04:41:38;;;;;;;1.37;1.00;;;;;;;;;;5008412;28;20204;-76
2022/02/21 04:44:06;;;;;;;5.73;1.37;;;;;;;;;;5005409;28;20212;-75
2022/02/21 04:46:33;;;;;;;3.90;1.37;;;;;;;;;;5009560;28;20716;-75
2022/02/21 04:49:00;;;;;;;3.80;2.23;;;;;;;;;;5007414;28;20205;-75
2022/02/21 04:51:28;;;;;;;6.70;1.87;;;;;;;;;;4999998;28;20225;-76
2022/02/21 04:53:55;;;;;;;2.87;0.97;;;;;;;;;;5000546;28;20211;-75
2022/02/21 04:56:23;;;;;;;3.03;1.07;;;;;;;;;;5001172;28;20208;-75
2022/02/21 04:58:51;;;;;;;1.67;0.97;;;;;;;;;;5001982;28;20205;-76
2022/02/21 05:01:19;;;;;;;6.43;1.77;;;;;;;;;;5001643;28;20699;-76
2022/02/21 05:03:46;;;;;;;2.83;1.30;;;;;;;;;;4999985;28;20201;-76
2022/02/21 05:06:14;;;;;;;8.37;1.57;;;;;;;;;;5002218;28;20204;-76
2022/02/21 05:08:41;;;;;;;4.07;1.63;;;;;;;;;;5001166;28;20292;-74
2022/02/21 05:11:09;;;;;;;5.07;0.80;;;;;;;;;;5001928;28;20236;-76
2022/02/21 05:13:40;;;;;;;12.67;2.23;;;;;;;;;;5000087;28;20205;-75
2022/02/21 05:16:08;;;;;;;2.73;1.10;;;;;;;;;;5001106;28;20307;-76
2022/02/21 05:18:36;;;;;;;8.90;1.93;;;;;;;;;;5002358;28;20292;-76
2022/02/21 05:21:03;;;;;;;3.90;1.47;;;;;;;;;;5002726;28;20667;-75
2022/02/21 05:23:30;;;;;;;4.57;1.20;;;;;;;;;;5000801;28;20205;-75
2022/02/21 05:25:58;;;;;;;4.67;0.73;;;;;;;;;;4999601;28;20205;-75
2022/02/21 05:28:25;;;;;;;6.10;1.77;;;;;;;;;;5001167;28;20193;-76
2022/02/21 05:30:54;;;;;;;1.43;0.67;;;;;;;;;;5000031;28;20820;-74
2022/02/21 05:33:23;;;;;;;2.77;1.67;;;;;;;;;;5000773;28;20224;-75
2022/02/21 05:35:50;;;;;;;12.13;1.60;;;;;;;;;;5000986;28;20201;-75
2022/02/21 05:38:18;;;;;;;1.67;1.00;;;;;;;;;;5002505;28;20205;-75
2022/02/21 05:40:45;;;;;;;1.83;0.57;;;;;;;;;;5003062;28;20193;-76
2022/02/21 05:43:12;;;;;;;9.03;1.83;;;;;;;;;;5003545;28;20193;-76
2022/02/21 05:45:40;;;;;;;4.03;1.17;;;;;;;;;;5005660;28;20197;-75
2022/02/21 05:48:07;;;;;;;1.50;1.20;;;;;;;;;;5005327;28;20255;-75
2022/02/21 05:50:36;;;;;;;2.07;1.17;;;;;;;;;;5004324;28;21368;-76
2022/02/21 05:53:03;;;;;;;8.17;1.70;;;;;;;;;;5003340;28;20233;-74
2022/02/21 05:55:30;;;;;;;4.30;0.90;;;;;;;;;;5001220;28;20698;-74
2022/02/21 05:57:58;;;;;;;4.13;0.90;;;;;;;;;;5001847;28;20205;-75
2022/02/21 06:00:26;;;;;;;1.13;0.57;;;;;;;;;;5000397;28;20279;-74
2022/02/21 06:02:53;;;;;;;5.93;1.93;;;;;;;;;;5001951;28;20271;-75
2022/02/21 06:05:21;;;;;;;2.30;1.20;;;;;;;;;;5004634;28;20200;-74
2022/02/21 06:07:49;;;;;;;8.93;1.03;;;;;;;;;;5004178;28;20284;-75
2022/02/21 06:10:17;;;;;;;3.33;1.17;;;;;;;;;;5004322;28;20197;-76
2022/02/21 06:12:44;;;;;;;1.33;0.97;;;;;;;;;;5004120;28;20232;-75
2022/02/21 06:15:12;;;;;;;6.77;0.77;;;;;;;;;;5004764;28;20475;-75
2022/02/21 06:17:39;;;;;;;5.80;1.97;;;;;;;;;;5003841;28;20201;-76
2022/02/21 09:12:25;;;;;;;6.17;2.40;;;;;;;;;;5029486;27;2538359;-79
2022/02/21 09:14:52;;;;;;;7.70;2.60;;;;;;;;;;5099539;28;20237;-76
2022/02/21 09:17:19;;;;;;;10.37;1.63;;;;;;;;;;5099750;28;20208;-79
2022/02/21 09:19:47;;;;;;;3.47;1.00;;;;;;;;;;5099473;28;20204;-80
2022/02/21 09:22:14;;;;;;;4.40;1.47;;;;;;;;;;5099720;28;20220;-77
2022/02/21 09:24:42;;;;;;;8.40;1.67;;;;;;;;;;5105306;28;20196;-76
2022/02/21 09:27:09;;;;;;;3.40;2.10;;;;;;;;;;5106451;28;20194;-83
2022/02/21 09:29:38;;;;;;;4.83;1.60;;;;;;;;;;5108943;28;20235;-84
2022/02/21 09:32:05;;;;;;;5.30;1.17;;;;;;;;;;5100823;28;20208;-77
2022/02/21 09:34:33;;;;;;;10.67;2.90;;;;;;;;;;5099101;28;20642;-81
2022/02/21 09:37:00;;;;;;;3.03;1.47;;;;;;;;;;5103217;28;20198;-79
2022/02/21 09:39:28;;;;;;;5.90;1.40;;;;;;;;;;5106100;28;20546;-76
2022/02/21 09:41:56;;;;;;;8.07;1.63;;;;;;;;;;5106621;28;20224;-78
2022/02/21 09:44:23;;;;;;;10.20;2.90;;;;;;;;;;5107107;28;20281;-78
2022/02/21 09:46:52;;;;;;;10.57;2.67;;;;;;;;;;5105556;28;20206;-77
2022/02/21 09:49:20;;;;;;;10.00;2.47;;;;;;;;;;5099119;28;20198;-78
2022/02/21 09:51:48;;;;;;;10.50;3.97;;;;;;;;;;5099354;28;20206;-79
2022/02/21 09:54:16;;;;;;;7.47;3.10;;;;;;;;;;5100417;28;20206;-80
2022/02/21 09:56:47;;;;;;;2.33;1.97;;;;;;;;;;5100208;28;20209;-80
2022/02/21 10:34:55;;;;;;;18.07;2.57;;;;;;;;;;5597004;22;20216;-75
2022/02/21 10:37:23;;;;;;;15.47;4.67;;;;;;;;;;5034390;28;20192;-78
2022/02/21 10:39:51;;;;;;;11.00;3.20;;;;;;;;;;5037996;28;20207;-73
2022/02/21 10:42:26;;;;;;;5.40;2.47;;;;;;;;;;5032163;28;20234;-76
2022/02/21 10:44:53;;;;;;;13.33;3.10;;;;;;;;;;5035926;28;20219;-79
2022/02/21 10:47:22;;;;;;;3.43;2.27;;;;;;;;;;5029770;28;20200;-76
2022/02/21 10:49:50;;;;;;;10.33;2.63;;;;;;;;;;5034595;28;20329;-75
2022/02/21 10:52:20;;;;;;;8.53;2.40;;;;;;;;;;5048204;28;20191;-78
2022/02/21 10:54:48;;;;;;;13.23;3.87;;;;;;;;;;5040166;28;20200;-77
2022/02/21 10:57:17;;;;;;;23.97;2.33;;;;;;;;;;5032949;28;20876;-75
2022/02/21 10:59:44;;;;;;;9.10;2.60;;;;;;;;;;5034282;28;20199;-78
2022/02/21 11:02:15;;;;;;;14.87;3.17;;;;;;;;;;5032929;28;20236;-77
2022/02/21 11:04:43;;;;;;;9.23;2.30;;;;;;;;;;5023605;28;20204;-77
2022/02/21 11:07:11;;;;;;;16.63;3.33;;;;;;;;;;5025089;28;20196;-78
2022/02/21 11:09:41;;;;;;;5.07;2.33;;;;;;;;;;5025805;28;20672;-77
2022/02/21 11:12:09;;;;;;;11.83;3.20;;;;;;;;;;5025602;28;20209;-81
2022/02/21 11:14:55;;;;;;;7.17;2.43;;;;;;;;;;5026091;28;20197;-78
2022/02/21 11:23:12;;;;;;;10.60;2.83;;;;;;;;;;5024040;28;20223;-81
2022/02/21 11:28:52;;;;;;;13.93;3.03;;;;;;;;;;5032965;28;20198;-78
2022/02/21 11:34:09;;;;;;;14.63;3.23;;;;;;;;;;5028757;28;20227;-77
2022/02/21 11:39:24;;;;;;;7.07;2.20;;;;;;;;;;5042893;28;20266;-77
2022/02/21 11:44:58;;;;;;;9.37;2.47;;;;;;;;;;5031261;28;20207;-77
2022/02/21 11:47:39;;;;;;;3.60;1.87;;;;;;;;;;5043898;28;20669;-76
2022/02/21 11:50:28;;;;;;;5.83;3.03;;;;;;;;;;5033291;28;20189;-76
2022/02/21 11:52:57;;;;;;;3.80;2.20;;;;;;;;;;5031356;28;21740;-76
2022/02/21 11:55:40;;;;;;;19.60;2.67;;;;;;;;;;5030157;28;20192;-73
2022/02/21 12:01:29;;;;;;;6.43;1.83;;;;;;;;;;5027506;28;20274;-77
2022/02/21 12:07:21;;;;;;;13.33;2.87;;;;;;;;;;5032758;28;20632;-77
2022/02/21 12:10:07;;;;;;;11.03;2.27;;;;;;;;;;5024568;28;20203;-75
2022/02/21 12:12:53;;;;;;;13.00;2.70;;;;;;;;;;5023353;28;20200;-76
2022/02/21 12:15:39;;;;;;;4.60;2.33;;;;;;;;;;5024056;28;20207;-76
2022/02/21 12:18:25;;;;;;;5.03;1.73;;;;;;;;;;5023082;28;20689;-76
2022/02/21 12:21:08;;;;;;;10.93;2.93;;;;;;;;;;5023470;28;20212;-76
2022/02/21 12:26:39;;;;;;;4.97;1.80;;;;;;;;;;5012415;28;20184;-75
2022/02/21 12:29:40;;;;;;;5.87;1.90;;;;;;;;;;5022356;28;20274;-77
2022/02/21 12:32:08;;;;;;;6.37;1.70;;;;;;;;;;4978520;28;20202;-75
2022/02/21 12:34:54;;;;;;;9.93;1.73;;;;;;;;;;4976987;28;20253;-79
2022/02/21 12:37:40;;;;;;;4.97;1.70;;;;;;;;;;4974708;28;21178;-86
2022/02/21 12:42:58;;;;;;;4.07;1.20;;;;;;;;;;4976275;28;20240;-78
2022/02/21 12:45:25;;;;;;;4.47;0.87;;;;;;;;;;4976631;28;20205;-74
2022/02/21 12:47:57;;;;;;;3.17;1.63;;;;;;;;;;4980264;28;20220;-73
2022/02/21 12:50:26;;;;;;;4.00;1.20;;;;;;;;;;4973964;28;20978;-75
2022/02/21 12:53:12;;;;;;;2.73;0.93;;;;;;;;;;4973398;28;20211;-82
2022/02/21 12:58:38;;;;;;;9.57;2.40;;;;;;;;;;4979309;28;20225;-78
2022/02/21 13:01:12;;;;;;;15.40;1.27;;;;;;;;;;4976861;28;20209;-74
2022/02/21 13:06:26;;;;;;;6.20;0.77;;;;;;;;;;4976067;28;20220;-80
2022/02/21 13:08:53;;;;;;;1.27;1.03;;;;;;;;;;4978631;28;20220;-83
2022/02/21 13:11:29;;;;;;;1.50;0.63;;;;;;;;;;4979367;28;20213;-74
2022/02/21 13:16:50;;;;;;;0.40;0.30;;;;;;;;;;4980275;28;20232;-83
2022/02/21 13:19:37;;;;;;;7.00;2.97;;;;;;;;;;4977819;28;20217;-81
2022/02/21 13:22:05;;;;;;;7.23;1.70;;;;;;;;;;4977535;28;20256;-79
2022/02/21 13:24:33;;;;;;;0.70;0.60;;;;;;;;;;4975665;28;20223;-77
2022/02/21 13:27:02;;;;;;;0.87;0.50;;;;;;;;;;4978831;28;20682;-79
2022/02/21 13:29:40;;;;;;;0.53;0.27;;;;;;;;;;4978942;28;20206;-79
2022/02/21 13:35:26;;;;;;;0.97;0.83;;;;;;;;;;4977926;28;20252;-81
2022/02/21 13:38:12;;;;;;;0.20;0.20;;;;;;;;;;4976823;28;20645;-77
2022/02/21 13:40:40;;;;;;;1.47;0.83;;;;;;;;;;4979139;28;20625;-83
2022/02/21 13:49:15;;;;;;;4.13;0.80;;;;;;;;;;4976900;28;20247;-77
2022/02/21 13:55:04;;;;;;;9.87;1.57;;;;;;;;;;4991489;28;20200;-73
2022/02/21 13:57:31;;;;;;;0.00;0.00;;;;;;;;;;5017709;28;20259;-71
2022/02/21 14:00:17;;;;;;;2.30;0.97;;;;;;;;;;5023325;28;20211;-76
2022/02/21 14:02:56;;;;;;;0.27;0.23;;;;;;;;;;5022458;28;20211;-76
2022/02/21 14:05:42;;;;;;;7.47;2.07;;;;;;;;;;5023439;28;20208;-75
2022/02/21 14:08:09;;;;;;;2.80;0.83;;;;;;;;;;5020607;28;20215;-77
2022/02/21 14:10:56;;;;;;;1.00;0.33;;;;;;;;;;5019306;28;20295;-80
2022/02/21 14:13:42;;;;;;;0.63;0.37;;;;;;;;;;5019588;28;20232;-77
2022/02/21 14:16:10;;;;;;;2.30;0.73;;;;;;;;;;5018579;28;20216;-75
2022/02/21 14:18:40;;;;;;;2.30;0.53;;;;;;;;;;5023699;28;20692;-76
2022/02/21 14:21:08;;;;;;;1.90;1.60;;;;;;;;;;5020477;28;20215;-79
2022/02/21 14:23:35;;;;;;;3.70;0.67;;;;;;;;;;5022772;28;20201;-78
2022/02/21 14:26:03;;;;;;;0.10;0.00;;;;;;;;;;5022313;28;20216;-80
2022/02/21 14:28:30;;;;;;;0.27;0.10;;;;;;;;;;5022456;28;20560;-77
2022/02/21 14:30:58;;;;;;;2.97;0.90;;;;;;;;;;5022643;28;20673;-79
2022/02/21 14:33:25;;;;;;;2.20;1.20;;;;;;;;;;5020782;28;20251;-79
2022/02/21 14:35:54;;;;;;;0.00;0.00;;;;;;;;;;5031039;28;20228;-78
2022/02/21 14:38:22;;;;;;;11.23;0.83;;;;;;;;;;5032562;28;20301;-76
2022/02/21 14:40:49;;;;;;;11.47;1.63;;;;;;;;;;5022276;28;20647;-78
2022/02/21 14:43:17;;;;;;;0.53;0.33;;;;;;;;;;5033338;28;20188;-78
2022/02/21 14:45:45;;;;;;;1.17;0.37;;;;;;;;;;5032965;28;20192;-77
2022/02/21 14:48:12;;;;;;;1.47;0.80;;;;;;;;;;5026499;28;20216;-77
2022/02/21 14:50:40;;;;;;;1.87;0.47;;;;;;;;;;5023221;28;20215;-77
2022/02/21 14:53:10;;;;;;;0.97;0.47;;;;;;;;;;5017025;28;20224;-77
2022/02/21 14:55:38;;;;;;;0.80;0.20;;;;;;;;;;5020009;28;20201;-75
2022/02/21 14:58:05;;;;;;;1.20;0.87;;;;;;;;;;5018653;28;20216;-75
2022/02/21 15:00:33;;;;;;;1.67;0.43;;;;;;;;;;5023134;28;20584;-76
2022/02/21 15:03:00;;;;;;;0.97;0.67;;;;;;;;;;5023476;28;20665;-80
2022/02/21 15:05:28;;;;;;;0.00;0.00;;;;;;;;;;5019836;28;20287;-76
2022/02/21 15:07:56;;;;;;;1.77;0.43;;;;;;;;;;5021290;28;20196;-77
2022/02/21 15:10:25;;;;;;;0.20;0.20;;;;;;;;;;5015299;28;20219;-76
2022/02/21 15:12:53;;;;;;;1.90;0.60;;;;;;;;;;5020252;28;20228;-76
2022/02/21 15:15:21;;;;;;;0.67;0.23;;;;;;;;;;5024045;28;20289;-75
2022/02/21 15:17:48;;;;;;;0.10;0.10;;;;;;;;;;5024407;28;20287;-78
2022/02/21 15:20:17;;;;;;;1.50;0.10;;;;;;;;;;5021388;28;20204;-79
2022/02/21 15:22:44;;;;;;;3.07;1.87;;;;;;;;;;5018784;28;20687;-79
2022/02/21 15:25:12;;;;;;;0.37;0.37;;;;;;;;;;5021468;28;20201;-72
2022/02/21 15:27:41;;;;;;;1.87;0.47;;;;;;;;;;5019513;28;20230;-77
2022/02/21 15:30:10;;;;;;;0.10;0.10;;;;;;;;;;5016899;28;20298;-74
2022/02/21 15:32:38;;;;;;;1.30;0.63;;;;;;;;;;5020964;28;20223;-76
2022/02/21 15:35:06;;;;;;;1.03;0.60;;;;;;;;;;5022292;28;20204;-75
2022/02/21 15:37:33;;;;;;;1.80;1.60;;;;;;;;;;5022745;28;20644;-78
2022/02/21 15:40:01;;;;;;;7.83;0.37;;;;;;;;;;5025770;28;20200;-77
2022/02/21 15:42:28;;;;;;;4.47;1.13;;;;;;;;;;5029268;28;20204;-76
2022/02/21 15:44:57;;;;;;;2.83;1.07;;;;;;;;;;5027563;28;20215;-76
2022/02/21 15:47:25;;;;;;;0.33;0.33;;;;;;;;;;5029515;28;20494;-75
2022/02/21 15:49:52;;;;;;;0.70;0.17;;;;;;;;;;5031669;28;20188;-77
2022/02/21 15:52:20;;;;;;;2.00;0.00;;;;;;;;;;5024468;28;20327;-77
2022/02/21 15:54:47;;;;;;;4.37;1.07;;;;;;;;;;5025646;28;20584;-79
2022/02/21 15:57:17;;;;;;;4.10;0.73;;;;;;;;;;5025384;28;20684;-77
2022/02/21 15:59:44;;;;;;;0.63;0.63;;;;;;;;;;5028256;28;20258;-78
2022/02/21 16:02:13;;;;;;;0.60;0.60;;;;;;;;;;5025120;28;20673;-76
2022/02/21 16:04:41;;;;;;;3.40;2.00;;;;;;;;;;5021155;28;20200;-78
2022/02/21 16:07:10;;;;;;;4.67;3.57;;;;;;;;;;5042708;28;20643;-76
2022/02/21 16:09:43;;;;;;;0.00;0.00;;;;;;;;;;5040418;28;20199;-75
2022/02/21 16:12:14;;;;;;;0.00;0.00;;;;;;;;;;5044323;28;20270;-76
2022/02/21 16:14:41;;;;;;;1.10;0.00;;;;;;;;;;5035144;28;20200;-75
2022/02/21 16:17:08;;;;;;;0.30;0.20;;;;;;;;;;5017519;28;20226;-79
2022/02/21 16:19:37;;;;;;;4.33;1.33;;;;;;;;;;5022313;28;20204;-78
2022/02/21 16:22:05;;;;;;;0.00;0.00;;;;;;;;;;5021988;28;20779;-77
2022/02/21 16:24:32;;;;;;;0.00;0.00;;;;;;;;;;5019176;28;20655;-77
2022/02/21 16:26:59;;;;;;;0.00;0.00;;;;;;;;;;5016477;28;20584;-76
2022/02/21 16:29:27;;;;;;;0.33;0.33;;;;;;;;;;5019233;28;20188;-76
2022/02/21 16:31:56;;;;;;;0.33;0.23;;;;;;;;;;5017692;28;20218;-75
2022/02/21 16:34:23;;;;;;;1.23;0.97;;;;;;;;;;5025117;28;20299;-75
2022/02/21 16:36:52;;;;;;;4.87;0.60;;;;;;;;;;5024152;28;20275;-76
2022/02/21 16:39:19;;;;;;;0.40;0.40;;;;;;;;;;5019972;28;20200;-75
2022/02/21 16:41:47;;;;;;;0.53;0.20;;;;;;;;;;5016153;28;20303;-74
2022/02/21 16:44:14;;;;;;;1.40;0.30;;;;;;;;;;5016675;28;20200;-75
2022/02/21 16:46:41;;;;;;;0.00;0.00;;;;;;;;;;5022965;28;20188;-75
2022/02/21 16:49:10;;;;;;;0.87;0.20;;;;;;;;;;5017481;28;20211;-75
2022/02/21 16:51:37;;;;;;;0.00;0.00;;;;;;;;;;5019894;28;20193;-75
2022/02/21 16:54:11;;;;;;;0.10;0.10;;;;;;;;;;5016488;28;20262;-76
2022/02/21 16:56:38;;;;;;;0.00;0.00;;;;;;;;;;5015264;28;20201;-76
2022/02/21 16:59:05;;;;;;;3.40;0.17;;;;;;;;;;5023735;28;20200;-76
2022/02/21 17:01:33;;;;;;;3.50;0.40;;;;;;;;;;5021358;28;20232;-72
2022/02/21 17:04:00;;;;;;;0.00;0.00;;;;;;;;;;5024129;28;20196;-78
2022/02/21 17:06:28;;;;;;;4.40;0.97;;;;;;;;;;5026381;28;20227;-74
2022/02/21 17:08:55;;;;;;;1.70;0.47;;;;;;;;;;5021030;28;20222;-73
2022/02/21 17:11:24;;;;;;;0.73;0.73;;;;;;;;;;5021196;28;20203;-74
2022/02/21 17:13:51;;;;;;;1.03;0.20;;;;;;;;;;5023309;28;20235;-74
2022/02/21 17:16:18;;;;;;;0.97;0.97;;;;;;;;;;5026695;28;20892;-74
2022/02/21 17:18:46;;;;;;;0.03;0.00;;;;;;;;;;5020525;28;20200;-74
2022/02/21 17:21:13;;;;;;;0.00;0.00;;;;;;;;;;5018799;28;20658;-74
2022/02/21 17:23:40;;;;;;;0.67;0.23;;;;;;;;;;5031169;28;20192;-74
2022/02/21 17:26:08;;;;;;;12.37;1.23;;;;;;;;;;5027834;28;20192;-74
2022/02/21 17:28:36;;;;;;;1.80;1.70;;;;;;;;;;5021242;28;20258;-75
2022/02/21 17:31:04;;;;;;;0.00;0.00;;;;;;;;;;5022335;28;20209;-74
2022/02/21 17:33:31;;;;;;;0.00;0.00;;;;;;;;;;5018974;28;20700;-72
2022/02/21 17:35:59;;;;;;;0.00;0.00;;;;;;;;;;5022018;28;20231;-74
2022/02/21 17:38:26;;;;;;;0.00;0.00;;;;;;;;;;5025751;28;20274;-74
2022/02/21 17:40:53;;;;;;;0.00;0.00;;;;;;;;;;5021889;28;20591;-74
2022/02/21 17:43:21;;;;;;;0.10;0.07;;;;;;;;;;5019336;28;20196;-74
2022/02/21 17:45:49;;;;;;;0.47;0.47;;;;;;;;;;5021541;28;20551;-73
2022/02/21 17:48:17;;;;;;;1.03;0.30;;;;;;;;;;5023893;28;20215;-76
2022/02/21 17:50:47;;;;;;;0.00;0.00;;;;;;;;;;5025819;28;20200;-75
2022/02/21 17:53:15;;;;;;;0.07;0.07;;;;;;;;;;5022386;28;20232;-77
2022/02/21 17:55:42;;;;;;;0.30;0.17;;;;;;;;;;5021024;28;20211;-74
2022/02/21 17:58:09;;;;;;;0.83;0.33;;;;;;;;;;5024546;28;20207;-74
2022/02/21 18:00:37;;;;;;;0.00;0.00;;;;;;;;;;5023540;28;20255;-75
2022/02/21 18:03:05;;;;;;;0.20;0.17;;;;;;;;;;5024145;28;21182;-74
2022/02/21 18:05:33;;;;;;;0.00;0.00;;;;;;;;;;5022602;28;20541;-75
2022/02/21 18:08:00;;;;;;;0.00;0.00;;;;;;;;;;5022179;28;20200;-74
2022/02/21 18:10:28;;;;;;;0.00;0.00;;;;;;;;;;5021361;28;20194;-74
2022/02/21 18:12:55;;;;;;;0.00;0.00;;;;;;;;;;5019968;28;20243;-74
2022/02/21 18:15:23;;;;;;;0.00;0.00;;;;;;;;;;5023049;28;20250;-74
2022/02/21 18:17:50;;;;;;;1.70;0.40;;;;;;;;;;5023839;28;20337;-74
2022/02/21 18:20:19;;;;;;;0.03;0.00;;;;;;;;;;5022906;28;20210;-73
2022/02/21 18:22:48;;;;;;;0.00;0.00;;;;;;;;;;5024240;28;20207;-74
2022/02/21 18:25:15;;;;;;;0.67;0.67;;;;;;;;;;5022133;28;20781;-74
2022/02/21 18:27:42;;;;;;;0.20;0.20;;;;;;;;;;5022525;28;20606;-73
2022/02/21 18:30:11;;;;;;;1.80;0.40;;;;;;;;;;5020229;28;20203;-75
2022/02/21 18:32:38;;;;;;;0.00;0.00;;;;;;;;;;5022824;28;20208;-75
2022/02/21 18:35:06;;;;;;;0.00;0.00;;;;;;;;;;5020745;28;20197;-75
2022/02/21 18:37:34;;;;;;;0.00;0.00;;;;;;;;;;5019629;28;20196;-75
2022/02/21 18:40:02;;;;;;;0.00;0.00;;;;;;;;;;5029702;28;20741;-76
2022/02/21 18:42:30;;;;;;;0.10;0.10;;;;;;;;;;5028964;28;20262;-76
2022/02/21 18:44:57;;;;;;;0.00;0.00;;;;;;;;;;5016426;28;20200;-74
2022/02/21 18:47:25;;;;;;;0.57;0.20;;;;;;;;;;5023636;28;20608;-76
2022/02/21 18:49:56;;;;;;;0.00;0.00;;;;;;;;;;5023302;28;20657;-75
2022/02/21 18:52:24;;;;;;;2.80;0.73;;;;;;;;;;5024760;28;20617;-75
2022/02/21 18:54:52;;;;;;;0.00;0.00;;;;;;;;;;5029833;28;20212;-76
2022/02/21 18:57:20;;;;;;;0.20;0.20;;;;;;;;;;5022003;28;20203;-75
2022/02/21 18:59:47;;;;;;;0.00;0.00;;;;;;;;;;5023064;28;20207;-75
2022/02/21 19:02:16;;;;;;;0.00;0.00;;;;;;;;;;5022175;28;20931;-76
2022/02/21 19:04:43;;;;;;;0.33;0.33;;;;;;;;;;5017258;28;20200;-75
2022/02/21 19:07:10;;;;;;;0.00;0.00;;;;;;;;;;5020912;28;20204;-76
2022/02/21 19:09:38;;;;;;;3.67;0.17;;;;;;;;;;5026016;28;20208;-75